createdAt,value
2023-01-26T00:00:10.726Z,27.20
2023-01-26T00:02:16.918Z,23.40
2023-01-26T00:04:19.804Z,27.02
2023-01-26T00:06:23.153Z,23.13
2023-01-26T00:08:26.190Z,25.92
2023-01-26T00:10:29.165Z,26.60
2023-01-26T00:12:32.068Z,22.20
2023-01-26T00:14:49.904Z,23.92
2023-01-26T00:16:54.413Z,24.52
2023-01-26T00:18:59.886Z,26.75
2023-01-26T00:21:04.009Z,24.75
2023-01-26T00:23:07.178Z,25.40
2023-01-26T00:25:10.715Z,29.77
2023-01-26T00:27:13.655Z,29.20
2023-01-26T00:29:16.610Z,27.05
2023-01-26T00:31:21.228Z,29.13
2023-01-26T00:33:24.188Z,30.40
2023-01-26T00:35:28.456Z,30.15
2023-01-26T00:37:31.787Z,32.42
2023-01-26T00:39:34.767Z,31.30
2023-01-26T00:42:00.450Z,31.98
2023-01-26T00:44:03.503Z,30.92
2023-01-26T00:46:06.435Z,34.13
2023-01-26T00:48:11.646Z,32.92
2023-01-26T00:50:14.871Z,33.58
2023-01-26T00:52:19.107Z,32.65
2023-01-26T00:54:22.035Z,32.65
2023-01-26T00:56:27.883Z,31.42
2023-01-26T00:58:30.846Z,30.90
2023-01-26T01:00:35.253Z,36.20
2023-01-26T01:02:38.244Z,33.17
2023-01-26T01:04:41.215Z,31.40
2023-01-26T01:06:44.447Z,32.75
2023-01-26T01:08:48.949Z,32.45
2023-01-26T01:10:51.868Z,32.78
2023-01-26T01:12:54.813Z,40.67
2023-01-26T01:14:59.556Z,39.42
2023-01-26T01:17:02.527Z,40.10
2023-01-26T01:19:05.585Z,41.95
2023-01-26T01:21:08.979Z,33.72
2023-01-26T01:23:11.879Z,40.05
2023-01-26T01:25:16.254Z,37.92
2023-01-26T01:27:19.254Z,38.95
2023-01-26T01:29:22.194Z,36.97
2023-01-26T01:31:26.209Z,38.47
2023-01-26T01:33:29.232Z,37.35
2023-01-26T01:35:35.735Z,38.22
2023-01-26T01:37:38.669Z,36.38
2023-01-26T01:39:41.607Z,36.20
2023-01-26T01:41:46.025Z,34.42
2023-01-26T01:43:48.978Z,34.58
2023-01-26T01:45:52.487Z,33.55
2023-01-26T01:47:57.399Z,36.75
2023-01-26T01:50:04.211Z,35.85
2023-01-26T01:52:10.208Z,36.60
2023-01-26T01:54:16.748Z,35.97
2023-01-26T01:56:22.037Z,37.88
2023-01-26T01:58:26.676Z,34.60
2023-01-26T02:00:32.831Z,36.50
2023-01-26T02:02:36.251Z,37.83
2023-01-26T02:04:39.537Z,36.40
2023-01-26T02:06:50.651Z,39.65
2023-01-26T02:08:55.738Z,33.38
2023-01-26T02:11:01.467Z,32.65
2023-01-26T02:13:06.392Z,36.08
2023-01-26T02:15:12.064Z,33.08
2023-01-26T02:17:14.969Z,32.67
2023-01-26T02:19:23.512Z,33.90
2023-01-26T02:21:26.633Z,33.30
2023-01-26T02:23:41.083Z,29.35
2023-01-26T02:25:49.110Z,33.90
2023-01-26T02:27:53.749Z,30.80
2023-01-26T02:29:57.481Z,30.30
2023-01-26T02:32:00.476Z,35.45
2023-01-26T02:34:03.614Z,31.83
2023-01-26T02:36:07.805Z,29.33
2023-01-26T02:38:10.874Z,29.88
2023-01-26T02:40:20.035Z,30.55
2023-01-26T02:42:44.408Z,26.45
2023-01-26T02:44:47.924Z,26.20
2023-01-26T02:46:50.936Z,30.05
2023-01-26T02:49:11.920Z,27.30
2023-01-26T02:51:15.028Z,27.30
2023-01-26T02:53:18.916Z,26.00
2023-01-26T02:55:25.183Z,26.85
2023-01-26T02:57:28.640Z,26.60
2023-01-26T02:59:32.233Z,27.10
2023-01-26T03:01:36.499Z,24.05
2023-01-26T03:03:45.182Z,29.33
2023-01-26T03:05:50.296Z,28.77
2023-01-26T03:07:53.904Z,27.85
2023-01-26T03:09:59.832Z,29.00
2023-01-26T03:12:02.792Z,25.45
2023-01-26T03:14:05.794Z,27.25
2023-01-26T03:16:10.353Z,27.30
2023-01-26T03:18:34.213Z,21.58
2023-01-26T03:20:53.318Z,25.08
2023-01-26T03:23:14.133Z,25.35
2023-01-26T03:25:35.401Z,29.38
2023-01-26T03:27:41.704Z,25.70
2023-01-26T03:29:44.997Z,24.75
2023-01-26T03:31:48.201Z,24.75
2023-01-26T03:33:52.591Z,22.63
2023-01-26T03:35:55.876Z,23.42
2023-01-26T03:38:00.104Z,23.60
2023-01-26T03:40:34.258Z,21.27
2023-01-26T03:42:55.569Z,23.58
2023-01-26T03:45:15.962Z,23.25
2023-01-26T03:47:37.255Z,22.23
2023-01-26T03:49:59.189Z,22.85
2023-01-26T03:52:20.060Z,22.35
2023-01-26T03:54:41.685Z,24.48
2023-01-26T03:56:45.243Z,21.05
2023-01-26T03:58:53.460Z,24.85
2023-01-26T04:00:58.737Z,22.08
2023-01-26T04:03:19.074Z,22.33
2023-01-26T04:05:41.273Z,20.48
2023-01-26T04:08:01.633Z,21.20
2023-01-26T04:10:05.023Z,24.15
2023-01-26T04:12:10.213Z,25.75
2023-01-26T04:14:49.307Z,22.55
2023-01-26T04:17:13.307Z,21.27
2023-01-26T04:19:33.868Z,24.15
2023-01-26T04:21:39.111Z,25.27
2023-01-26T04:23:56.398Z,26.20
2023-01-26T04:26:00.041Z,28.40
2023-01-26T04:28:03.322Z,32.30
2023-01-26T04:30:07.975Z,30.90
2023-01-26T04:32:11.921Z,35.60
2023-01-26T04:34:16.502Z,26.92
2023-01-26T04:36:19.766Z,29.08
2023-01-26T04:38:26.785Z,26.23
2023-01-26T04:40:30.533Z,27.70
2023-01-26T04:42:33.955Z,29.40
2023-01-26T04:44:38.234Z,25.10
2023-01-26T04:46:41.603Z,27.27
2023-01-26T04:48:46.785Z,28.70
2023-01-26T04:50:54.847Z,24.38
2023-01-26T04:52:59.038Z,29.15
2023-01-26T04:55:03.437Z,27.45
2023-01-26T04:57:09.009Z,25.00
2023-01-26T04:59:12.997Z,33.05
2023-01-26T05:01:17.565Z,26.88
2023-01-26T05:03:20.718Z,25.05
2023-01-26T05:05:23.870Z,26.48
2023-01-26T05:07:27.028Z,24.40
2023-01-26T05:09:30.121Z,26.02
2023-01-26T05:11:49.682Z,25.17
2023-01-26T05:14:12.944Z,26.77
2023-01-26T05:16:31.766Z,25.77
2023-01-26T05:18:35.051Z,24.52
2023-01-26T05:20:52.806Z,28.00
2023-01-26T05:23:01.582Z,22.83
2023-01-26T05:25:36.656Z,24.67
2023-01-26T05:27:45.393Z,25.38
2023-01-26T05:29:51.011Z,23.35
2023-01-26T05:31:54.681Z,24.05
2023-01-26T05:33:57.900Z,24.38
2023-01-26T05:36:05.045Z,21.77
2023-01-26T05:38:08.519Z,21.45
2023-01-26T05:40:13.995Z,24.40
2023-01-26T05:42:17.391Z,21.63
2023-01-26T05:44:38.350Z,21.17
2023-01-26T05:46:49.959Z,20.92
2023-01-26T05:48:52.908Z,20.27
2023-01-26T05:50:57.437Z,21.33
2023-01-26T05:53:02.967Z,23.23
2023-01-26T05:55:08.515Z,22.67
2023-01-26T05:57:11.903Z,19.05
2023-01-26T05:59:20.055Z,20.58
2023-01-26T06:01:24.567Z,18.73
2023-01-26T06:03:33.596Z,19.80
2023-01-26T06:05:38.825Z,19.60
2023-01-26T06:07:49.815Z,18.30
2023-01-26T06:10:01.408Z,18.35
2023-01-26T06:12:43.114Z,18.45
2023-01-26T06:15:13.377Z,17.27
2023-01-26T06:17:22.334Z,18.25
2023-01-26T06:19:31.529Z,16.73
2023-01-26T06:21:36.325Z,19.23
2023-01-26T06:23:39.463Z,16.45
2023-01-26T06:25:42.620Z,17.40
2023-01-26T06:27:45.554Z,19.77
2023-01-26T06:30:00.040Z,16.80
2023-01-26T06:32:03.547Z,15.30
2023-01-26T06:34:08.853Z,15.07
2023-01-26T06:36:16.116Z,15.90
2023-01-26T06:38:23.235Z,18.45
2023-01-26T06:40:26.952Z,14.40
2023-01-26T06:42:30.275Z,18.38
2023-01-26T06:44:33.298Z,16.40
2023-01-26T06:46:36.390Z,15.85
2023-01-26T06:48:39.899Z,17.30
2023-01-26T06:50:45.777Z,19.60
2023-01-26T06:52:49.508Z,15.57
2023-01-26T06:55:18.579Z,17.55
2023-01-26T06:57:29.935Z,17.30
2023-01-26T06:59:46.394Z,19.20
2023-01-26T07:02:15.483Z,14.30
2023-01-26T07:04:18.620Z,17.90
2023-01-26T07:06:23.164Z,16.75
2023-01-26T07:08:26.357Z,14.02
2023-01-26T07:10:31.533Z,15.75
2023-01-26T07:12:41.853Z,15.25
2023-01-26T07:14:45.111Z,17.58
2023-01-26T07:16:48.186Z,17.25
2023-01-26T07:18:51.216Z,17.00
2023-01-26T07:20:54.120Z,18.58
2023-01-26T07:23:00.532Z,16.85
2023-01-26T07:25:03.690Z,15.18
2023-01-26T07:27:07.443Z,15.18
2023-01-26T07:29:10.634Z,14.90
2023-01-26T07:31:13.993Z,15.15
2023-01-26T07:33:17.069Z,14.80
2023-01-26T07:35:20.059Z,15.70
2023-01-26T07:37:22.997Z,14.77
2023-01-26T07:39:27.849Z,14.98
2023-01-26T07:41:30.985Z,16.63
2023-01-26T07:43:35.167Z,16.80
2023-01-26T07:45:38.125Z,16.60
2023-01-26T07:47:41.080Z,14.13
2023-01-26T07:49:44.016Z,14.70
2023-01-26T07:51:47.004Z,18.60
2023-01-26T07:53:50.082Z,14.45
2023-01-26T07:55:54.456Z,18.48
2023-01-26T07:57:57.780Z,18.65
2023-01-26T08:00:01.037Z,14.70
2023-01-26T08:02:04.083Z,14.98
2023-01-26T08:04:07.425Z,15.02
2023-01-26T08:06:14.101Z,14.68
2023-01-26T08:08:19.395Z,14.25
2023-01-26T08:10:22.426Z,13.30
2023-01-26T08:12:26.767Z,12.43
2023-01-26T08:14:45.071Z,13.98
2023-01-26T08:16:49.158Z,12.45
2023-01-26T08:18:52.360Z,16.13
2023-01-26T08:20:55.853Z,11.15
2023-01-26T08:23:00.477Z,13.23
2023-01-26T08:25:03.680Z,13.90
2023-01-26T08:27:06.695Z,11.35
2023-01-26T08:29:11.097Z,11.02
2023-01-26T08:31:18.611Z,12.30
2023-01-26T08:33:21.675Z,10.38
2023-01-26T08:35:24.664Z,10.70
2023-01-26T08:37:27.667Z,9.88
2023-01-26T08:39:30.607Z,13.18
2023-01-26T08:41:33.984Z,11.63
2023-01-26T08:43:37.209Z,11.07
2023-01-26T08:45:41.693Z,12.20
2023-01-26T08:47:45.403Z,10.82
2023-01-26T08:49:48.440Z,12.23
2023-01-26T08:51:51.454Z,13.80
2023-01-26T08:53:54.796Z,15.75
2023-01-26T08:55:57.745Z,12.07
2023-01-26T08:58:00.880Z,14.60
2023-01-26T09:00:04.993Z,14.30
2023-01-26T09:02:10.164Z,14.43
2023-01-26T09:04:13.256Z,13.65
2023-01-26T09:06:16.371Z,14.60
2023-01-26T09:08:19.302Z,14.52
2023-01-26T09:10:22.285Z,15.60
2023-01-26T09:12:25.303Z,15.43
2023-01-26T09:14:28.707Z,16.50
2023-01-26T09:16:31.889Z,16.42
2023-01-26T09:18:36.551Z,15.55
2023-01-26T09:20:40.139Z,14.82
2023-01-26T09:22:43.602Z,16.80
2023-01-26T09:24:46.591Z,15.57
2023-01-26T09:26:49.615Z,14.38
2023-01-26T09:28:53.130Z,16.38
2023-01-26T09:30:56.495Z,14.27
2023-01-26T09:33:00.278Z,14.52
2023-01-26T09:35:04.985Z,15.00
2023-01-26T09:37:08.407Z,16.55
2023-01-26T09:39:11.470Z,15.10
2023-01-26T09:41:33.550Z,15.30
2023-01-26T09:43:41.535Z,14.63
2023-01-26T09:45:48.188Z,14.40
2023-01-26T09:47:59.857Z,12.38
2023-01-26T09:50:09.559Z,14.07
2023-01-26T09:52:19.552Z,14.57
2023-01-26T09:54:27.813Z,14.48
2023-01-26T09:56:32.632Z,13.50
2023-01-26T09:58:39.315Z,14.77
2023-01-26T10:00:47.436Z,12.80
2023-01-26T10:03:02.184Z,14.07
2023-01-26T10:05:15.852Z,12.68
2023-01-26T10:07:18.939Z,12.52
2023-01-26T10:09:24.292Z,15.80
2023-01-26T10:11:32.041Z,13.77
2023-01-26T10:13:35.635Z,15.00
2023-01-26T10:15:40.621Z,14.80
2023-01-26T10:17:45.041Z,12.70
2023-01-26T10:19:51.720Z,14.27
2023-01-26T10:21:56.766Z,15.32
2023-01-26T10:24:02.903Z,15.48
2023-01-26T10:26:13.479Z,13.75
2023-01-26T10:28:17.619Z,16.38
2023-01-26T10:30:22.283Z,12.25
2023-01-26T10:32:25.499Z,13.10
2023-01-26T10:34:29.030Z,16.15
2023-01-26T10:36:33.227Z,16.05
2023-01-26T10:38:45.051Z,15.90
2023-01-26T10:40:48.061Z,14.77
2023-01-26T10:42:58.925Z,15.18
2023-01-26T10:45:03.582Z,14.05
2023-01-26T10:47:17.921Z,17.52
2023-01-26T10:49:22.052Z,14.18
2023-01-26T10:51:28.033Z,16.13
2023-01-26T10:53:31.584Z,15.45
2023-01-26T10:55:37.307Z,16.10
2023-01-26T10:57:42.325Z,13.77
2023-01-26T10:59:52.705Z,14.85
2023-01-26T11:01:57.469Z,12.98
2023-01-26T11:04:04.943Z,16.95
2023-01-26T11:06:09.176Z,15.40
2023-01-26T11:08:33.713Z,18.77
2023-01-26T11:10:42.960Z,18.75
2023-01-26T11:12:46.047Z,19.83
2023-01-26T11:15:01.472Z,20.10
2023-01-26T11:17:15.715Z,17.77
2023-01-26T11:19:28.331Z,15.43
2023-01-26T11:21:35.346Z,15.20
2023-01-26T11:23:47.548Z,14.32
2023-01-26T11:26:15.446Z,15.88
2023-01-26T11:28:30.995Z,17.98
2023-01-26T11:30:40.547Z,19.20
2023-01-26T11:32:47.989Z,18.13
2023-01-26T11:34:58.877Z,23.45
2023-01-26T11:37:15.721Z,22.52
2023-01-26T11:39:24.525Z,23.35
2023-01-26T11:41:39.369Z,19.05
2023-01-26T11:44:13.336Z,23.20
2023-01-26T11:46:41.067Z,18.52
2023-01-26T11:48:50.694Z,21.08
2023-01-26T11:50:57.311Z,18.83
2023-01-26T11:53:29.025Z,19.85
2023-01-26T11:55:39.812Z,22.27
2023-01-26T11:57:55.019Z,23.00
2023-01-26T12:00:01.971Z,21.45
2023-01-26T12:02:06.919Z,19.92
2023-01-26T12:04:18.476Z,19.48
2023-01-26T12:06:27.175Z,18.40
2023-01-26T12:08:38.349Z,18.30
2023-01-26T12:10:47.891Z,18.52
2023-01-26T12:12:56.267Z,14.85
2023-01-26T12:15:05.953Z,20.08
2023-01-26T12:17:26.624Z,14.00
2023-01-26T12:19:40.155Z,17.00
2023-01-26T12:21:45.752Z,17.83
2023-01-26T12:23:52.878Z,20.65
2023-01-26T12:25:58.202Z,18.08
2023-01-26T12:28:12.426Z,22.20
2023-01-26T12:30:26.100Z,15.77
2023-01-26T12:32:29.264Z,20.08
2023-01-26T12:34:34.251Z,20.13
2023-01-26T12:36:44.163Z,15.10
2023-01-26T12:39:01.475Z,18.33
2023-01-26T12:41:10.040Z,17.45
2023-01-26T12:43:24.802Z,18.48
2023-01-26T12:45:31.202Z,18.48
2023-01-26T12:47:37.397Z,20.40
2023-01-26T12:49:44.806Z,21.25
2023-01-26T12:51:51.866Z,20.70
2023-01-26T12:53:58.725Z,21.30
2023-01-26T12:56:10.099Z,17.70
2023-01-26T12:58:15.765Z,20.17
2023-01-26T13:00:23.669Z,21.65
2023-01-26T13:02:29.459Z,18.58
2023-01-26T13:04:32.586Z,16.23
2023-01-26T13:06:35.834Z,17.30
2023-01-26T13:09:04.506Z,20.38
2023-01-26T13:11:08.972Z,18.05
2023-01-26T13:13:36.914Z,17.33
2023-01-26T13:15:41.368Z,17.77
2023-01-26T13:17:56.712Z,17.33
2023-01-26T13:20:00.224Z,15.57
2023-01-26T13:22:03.505Z,18.00
2023-01-26T13:24:47.066Z,32.63
2023-01-26T13:26:51.718Z,18.50
2023-01-26T13:29:41.616Z,22.85
2023-01-26T13:31:46.014Z,23.77
2023-01-26T13:33:50.273Z,22.85
2023-01-26T13:35:54.928Z,19.00
2023-01-26T13:38:03.519Z,26.95
2023-01-26T13:40:14.950Z,23.48
2023-01-26T13:42:21.812Z,19.73
2023-01-26T13:44:30.896Z,15.63
2023-01-26T13:46:37.752Z,14.07
2023-01-26T13:48:45.315Z,20.23
2023-01-26T13:50:51.466Z,19.30
2023-01-26T13:52:54.524Z,16.73
2023-01-26T13:54:57.889Z,18.55
2023-01-26T13:57:02.498Z,17.45
2023-01-26T13:59:11.556Z,16.80
2023-01-26T14:01:17.051Z,18.38
2023-01-26T14:03:22.821Z,15.80
2023-01-26T14:05:27.340Z,16.00
2023-01-26T14:07:33.779Z,15.45
2023-01-26T14:09:45.727Z,19.40
2023-01-26T14:11:59.385Z,15.52
2023-01-26T14:14:03.004Z,22.35
2023-01-26T14:16:07.959Z,19.60
2023-01-26T14:18:21.741Z,25.33
2023-01-26T14:20:30.011Z,23.45
2023-01-26T14:22:33.003Z,19.63
2023-01-26T14:24:39.705Z,17.88
2023-01-26T14:26:43.195Z,17.35
2023-01-26T14:28:46.862Z,22.00
2023-01-26T14:30:52.896Z,14.90
2023-01-26T14:32:59.208Z,19.85
2023-01-26T14:35:02.412Z,22.73
2023-01-26T14:37:08.302Z,15.27
2023-01-26T14:39:18.153Z,17.00
2023-01-26T14:41:23.420Z,19.00
2023-01-26T14:43:29.758Z,17.98
2023-01-26T14:45:41.581Z,16.38
2023-01-26T14:48:04.425Z,16.70
2023-01-26T14:50:11.696Z,16.65
2023-01-26T14:52:25.536Z,16.88
2023-01-26T15:02:17.920Z,21.70
2023-01-26T15:04:24.886Z,17.33
2023-01-26T15:06:29.533Z,15.50
2023-01-26T15:08:37.576Z,12.43
2023-01-26T15:10:42.846Z,14.13
2023-01-26T15:12:44.857Z,15.48
2023-01-26T15:14:52.627Z,18.27
2023-01-26T15:20:44.534Z,15.13
2023-01-26T15:22:49.990Z,12.52
2023-01-26T15:25:05.940Z,13.98
2023-01-26T15:27:08.997Z,12.45
2023-01-26T15:29:19.791Z,13.70
2023-01-26T15:31:28.389Z,14.40
2023-01-26T15:33:45.808Z,14.20
2023-01-26T15:35:58.433Z,14.43
2023-01-26T15:38:02.880Z,11.80
2023-01-26T15:40:08.985Z,16.13
2023-01-26T15:42:14.283Z,10.15
2023-01-26T15:44:18.689Z,11.60
2023-01-26T15:46:21.906Z,12.35
2023-01-26T15:48:26.712Z,13.27
2023-01-26T15:50:29.852Z,11.30
2023-01-26T15:52:33.334Z,11.85
2023-01-26T15:54:36.343Z,11.38
2023-01-26T15:56:40.724Z,17.42
2023-01-26T15:58:44.093Z,12.02
2023-01-26T16:00:47.449Z,11.48
2023-01-26T16:02:50.668Z,11.20
2023-01-26T16:04:53.760Z,13.60
2023-01-26T16:06:56.852Z,12.50
2023-01-26T16:09:00.224Z,14.32
2023-01-26T16:11:03.176Z,12.23
2023-01-26T16:13:10.178Z,12.38
2023-01-26T16:15:35.281Z,13.20
2023-01-26T16:17:38.300Z,12.70
2023-01-26T16:19:41.341Z,11.90
2023-01-26T16:21:45.206Z,13.93
2023-01-26T16:23:48.595Z,14.55
2023-01-26T16:25:52.254Z,17.95
2023-01-26T16:27:55.551Z,13.38
2023-01-26T16:29:59.967Z,18.23
2023-01-26T16:32:03.191Z,13.77
2023-01-26T16:34:06.203Z,14.55
2023-01-26T16:36:11.482Z,16.63
2023-01-26T16:38:14.526Z,15.18
2023-01-26T16:40:18.698Z,14.10
2023-01-26T16:42:22.318Z,17.30
2023-01-26T16:44:25.457Z,15.65
2023-01-26T16:46:31.605Z,19.38
2023-01-26T16:48:34.885Z,17.02
2023-01-26T16:50:38.015Z,14.80
2023-01-26T16:52:42.044Z,12.48
2023-01-26T16:54:45.645Z,14.50
2023-01-26T16:56:48.639Z,12.70
2023-01-26T16:58:51.998Z,14.18
2023-01-26T17:00:55.567Z,13.55
2023-01-26T17:02:59.998Z,13.35
2023-01-26T17:05:03.042Z,14.85
2023-01-26T17:07:06.188Z,12.13
2023-01-26T17:09:10.480Z,11.88
2023-01-26T17:11:17.847Z,16.30
2023-01-26T17:13:20.881Z,14.73
2023-01-26T17:15:25.234Z,12.50
2023-01-26T17:17:28.233Z,17.60
2023-01-26T17:19:32.593Z,19.33
2023-01-26T17:21:35.749Z,14.45
2023-01-26T17:23:41.590Z,14.50
2023-01-26T17:25:44.666Z,15.00
2023-01-26T17:27:49.768Z,16.65
2023-01-26T17:29:52.829Z,17.73
2023-01-26T17:31:55.939Z,14.68
2023-01-26T17:33:58.975Z,16.73
2023-01-26T17:36:04.375Z,16.75
2023-01-26T17:38:07.314Z,17.55
2023-01-26T17:40:11.675Z,24.95
2023-01-26T17:42:15.135Z,18.60
2023-01-26T17:44:18.146Z,20.05
2023-01-26T17:46:22.234Z,18.10
2023-01-26T17:48:25.194Z,19.23
2023-01-26T17:50:28.260Z,18.88
2023-01-26T17:52:35.277Z,20.05
2023-01-26T17:54:38.331Z,20.92
2023-01-26T17:56:41.324Z,23.83
2023-01-26T17:58:48.629Z,21.15
2023-01-26T18:00:51.777Z,19.90
2023-01-26T18:02:55.127Z,26.60
2023-01-26T18:04:58.173Z,21.40
2023-01-26T18:07:02.695Z,25.88
2023-01-26T18:09:07.112Z,21.33
2023-01-26T18:11:12.337Z,26.15
2023-01-26T18:13:16.081Z,26.83
2023-01-26T18:15:19.136Z,20.17
2023-01-26T18:17:22.300Z,24.13
2023-01-26T18:19:25.460Z,23.17
2023-01-26T18:21:30.115Z,23.08
2023-01-26T18:23:33.136Z,23.33
2023-01-26T18:25:37.603Z,26.25
2023-01-26T18:27:40.826Z,24.23
2023-01-26T18:29:44.075Z,21.10
2023-01-26T18:31:48.031Z,24.25
2023-01-26T18:33:51.229Z,23.58
2023-01-26T18:35:54.282Z,21.35
2023-01-26T18:37:57.342Z,20.55
2023-01-26T18:40:00.427Z,19.50
2023-01-26T18:42:05.040Z,20.05
2023-01-26T18:44:08.405Z,20.80
2023-01-26T18:46:12.202Z,17.80
2023-01-26T18:48:15.261Z,20.10
2023-01-26T18:50:18.784Z,19.73
2023-01-26T18:52:21.915Z,24.77
2023-01-26T18:54:25.696Z,19.35
2023-01-26T18:56:28.900Z,20.70
2023-01-26T18:58:33.278Z,18.42
2023-01-26T19:00:36.421Z,21.38
2023-01-26T19:02:39.570Z,20.77
2023-01-26T19:04:42.863Z,17.98
2023-01-26T19:06:46.682Z,17.83
2023-01-26T19:08:58.588Z,18.48
2023-01-26T19:11:05.461Z,19.40
2023-01-26T19:13:09.387Z,17.35
2023-01-26T19:15:14.140Z,19.10
2023-01-26T19:17:18.186Z,18.65
2023-01-26T19:19:21.286Z,22.73
2023-01-26T19:21:25.183Z,20.33
2023-01-26T19:23:28.687Z,17.20
2023-01-26T19:25:31.958Z,16.70
2023-01-26T19:27:34.943Z,19.85
2023-01-26T19:29:37.984Z,19.83
2023-01-26T19:31:42.780Z,18.65
2023-01-26T19:33:50.891Z,13.95
2023-01-26T19:35:53.881Z,19.48
2023-01-26T19:37:57.212Z,16.38
2023-01-26T19:40:00.329Z,17.80
2023-01-26T19:42:03.385Z,17.13
2023-01-26T19:44:06.771Z,18.33
2023-01-26T19:46:11.738Z,15.00
2023-01-26T19:48:16.483Z,19.50
2023-01-26T19:50:19.918Z,16.35
2023-01-26T19:52:22.899Z,15.73
2023-01-26T19:54:26.034Z,18.63
2023-01-26T19:56:31.447Z,17.65
2023-01-26T19:58:34.547Z,18.33
2023-01-26T20:00:37.545Z,16.25
2023-01-26T20:02:40.686Z,17.00
2023-01-26T20:04:45.573Z,18.27
2023-01-26T20:06:49.919Z,15.93
2023-01-26T20:08:54.135Z,16.10
2023-01-26T20:11:03.755Z,15.00
2023-01-26T20:13:07.320Z,15.35
2023-01-26T20:15:11.773Z,16.65
2023-01-26T20:17:14.940Z,15.00
2023-01-26T20:19:18.163Z,17.00
2023-01-26T20:21:23.351Z,15.65
2023-01-26T20:23:27.331Z,15.50
2023-01-26T20:25:30.555Z,17.55
2023-01-26T20:27:34.109Z,16.70
2023-01-26T20:29:37.125Z,14.10
2023-01-26T20:31:40.179Z,17.75
2023-01-26T20:33:44.230Z,18.23
2023-01-26T20:35:47.305Z,16.02
2023-01-26T20:37:51.715Z,20.27
2023-01-26T20:39:54.752Z,16.70
2023-01-26T20:41:57.722Z,15.95
2023-01-26T20:44:02.656Z,16.05
2023-01-26T20:46:07.477Z,22.13
2023-01-26T20:48:10.548Z,18.75
2023-01-26T20:50:14.193Z,23.33
2023-01-26T20:52:17.370Z,24.15
2023-01-26T20:54:22.786Z,17.90
2023-01-26T20:56:26.770Z,20.38
2023-01-26T20:58:29.845Z,17.85
2023-01-26T21:00:33.016Z,18.50
2023-01-26T21:02:36.072Z,17.20
2023-01-26T21:04:39.136Z,19.13
2023-01-26T21:06:42.177Z,18.35
2023-01-26T21:08:45.251Z,16.55
2023-01-26T21:10:50.568Z,19.17
2023-01-26T21:12:53.529Z,16.98
2023-01-26T21:14:56.511Z,18.00
2023-01-26T21:16:59.754Z,20.10
2023-01-26T21:19:02.869Z,19.33
2023-01-26T21:21:07.687Z,22.83
2023-01-26T21:23:10.811Z,17.92
2023-01-26T21:25:14.114Z,17.13
2023-01-26T21:27:19.149Z,19.42
2023-01-26T21:29:22.424Z,18.85
2023-01-26T21:31:26.712Z,21.10
2023-01-26T21:33:29.907Z,19.80
2023-01-26T21:35:32.898Z,23.00
2023-01-26T21:37:35.924Z,21.42
2023-01-26T21:39:38.913Z,19.00
2023-01-26T21:41:57.193Z,17.08
2023-01-26T21:44:02.985Z,17.38
2023-01-26T21:46:06.405Z,17.52
2023-01-26T21:48:26.855Z,16.50
2023-01-26T21:50:50.031Z,15.52
2023-01-26T21:52:57.815Z,16.58
2023-01-26T21:55:00.869Z,18.85
2023-01-26T21:57:25.443Z,16.80
2023-01-26T21:59:29.284Z,15.70
2023-01-26T22:01:34.010Z,19.77
2023-01-26T22:03:37.710Z,18.48
2023-01-26T22:05:40.710Z,18.13
2023-01-26T22:07:43.812Z,18.88
2023-01-26T22:09:46.883Z,18.75
2023-01-26T22:11:50.637Z,16.67
2023-01-26T22:13:53.977Z,16.92
2023-01-26T22:16:04.187Z,16.05
2023-01-26T22:18:07.447Z,16.95
2023-01-26T22:20:12.186Z,16.35
2023-01-26T22:22:15.738Z,17.88
2023-01-26T22:24:18.981Z,16.45
2023-01-26T22:26:23.536Z,18.92
2023-01-26T22:28:26.531Z,18.10
2023-01-26T22:30:29.612Z,19.60
2023-01-26T22:32:34.014Z,18.95
2023-01-26T22:34:37.079Z,16.33
2023-01-26T22:36:40.490Z,17.88
2023-01-26T22:38:43.967Z,20.67
2023-01-26T22:40:47.008Z,18.70
2023-01-26T22:42:50.083Z,19.65
2023-01-26T22:44:53.046Z,19.63
2023-01-26T22:46:56.012Z,21.30
2023-01-26T22:49:00.739Z,18.30
2023-01-26T22:51:07.951Z,19.63
2023-01-26T22:53:11.565Z,19.50
2023-01-26T22:55:14.543Z,22.00
2023-01-26T22:57:17.570Z,18.95
2023-01-26T22:59:20.633Z,20.08
2023-01-26T23:01:24.104Z,20.60
2023-01-26T23:03:27.130Z,20.65
2023-01-26T23:05:34.448Z,21.70
2023-01-26T23:07:37.451Z,21.92
2023-01-26T23:09:40.470Z,21.48
2023-01-26T23:11:43.483Z,21.05
2023-01-26T23:13:47.505Z,32.20
2023-01-26T23:15:50.524Z,24.63
2023-01-26T23:17:53.871Z,21.05
2023-01-26T23:19:56.935Z,19.67
2023-01-26T23:22:01.364Z,16.83
2023-01-26T23:24:04.411Z,22.92
2023-01-26T23:26:07.570Z,21.95
2023-01-26T23:28:10.565Z,22.63
2023-01-26T23:30:14.692Z,20.85
2023-01-26T23:32:17.762Z,22.17
2023-01-26T23:34:21.238Z,21.08
2023-01-26T23:36:24.200Z,22.05
2023-01-26T23:38:29.567Z,21.02
2023-01-26T23:40:32.485Z,22.52
2023-01-26T23:42:45.227Z,19.00
2023-01-26T23:44:58.463Z,21.35
2023-01-26T23:47:01.610Z,21.00
2023-01-26T23:49:04.617Z,19.20
2023-01-26T23:51:10.061Z,19.02
2023-01-26T23:53:13.255Z,22.85
2023-01-26T23:55:18.049Z,19.65
2023-01-26T23:57:21.017Z,22.65
2023-01-26T23:59:24.193Z,21.95
